createdAt,value
2023-01-03T00:02:04.241Z,100480.31
2023-01-03T00:04:30.981Z,100469.03
2023-01-03T00:06:57.738Z,100465.56
2023-01-03T00:09:25.270Z,100470.78
2023-01-03T00:12:12.554Z,100469.94
2023-01-03T00:14:41.764Z,100478.63
2023-01-03T00:17:09.672Z,100474.28
2023-01-03T00:19:40.325Z,100470.81
2023-01-03T00:22:07.590Z,100470.81
2023-01-03T00:24:34.697Z,100476.03
2023-01-03T00:27:01.436Z,100476.91
2023-01-03T00:29:28.314Z,100476.03
2023-01-03T00:31:54.977Z,100483.88
2023-01-03T00:34:21.915Z,100482.13
2023-01-03T00:36:48.688Z,100480.38
2023-01-03T00:39:15.423Z,100487.31
2023-01-03T00:41:42.535Z,100491.66
2023-01-03T00:44:09.796Z,100501.25
2023-01-03T00:46:37.239Z,100489.94
2023-01-03T00:49:04.755Z,100502.09
2023-01-03T00:51:34.241Z,100505.59
2023-01-03T00:54:03.315Z,100509.03
2023-01-03T00:56:33.913Z,100502.09
2023-01-03T00:59:00.953Z,100515.16
2023-01-03T01:01:31.148Z,100515.16
2023-01-03T01:04:09.791Z,100515.13
2023-01-03T01:06:42.971Z,100521.22
2023-01-03T01:09:13.271Z,100517.75
2023-01-03T01:11:40.339Z,100523.84
2023-01-03T01:14:19.995Z,100529.91
2023-01-03T01:17:05.328Z,100520.34
2023-01-03T01:19:35.795Z,100526.44
2023-01-03T01:22:02.657Z,100535.13
2023-01-03T01:24:29.660Z,100527.31
2023-01-03T01:26:56.720Z,100532.50
2023-01-03T01:29:23.892Z,100537.72
2023-01-03T01:31:50.971Z,100543.78
2023-01-03T01:34:18.492Z,100548.19
2023-01-03T01:36:46.254Z,100548.19
2023-01-03T01:39:14.482Z,100556.00
2023-01-03T01:42:02.467Z,100558.59
2023-01-03T01:44:58.573Z,100559.44
2023-01-03T01:47:53.039Z,100557.69
2023-01-03T01:50:26.469Z,100557.72
2023-01-03T01:53:00.217Z,100547.25
2023-01-03T01:55:35.434Z,100557.69
2023-01-03T01:58:02.703Z,100563.75
2023-01-03T02:00:30.001Z,100575.06
2023-01-03T02:02:56.891Z,100568.97
2023-01-03T02:05:27.310Z,100572.44
2023-01-03T02:07:54.840Z,100571.56
2023-01-03T02:10:39.678Z,100575.06
2023-01-03T02:13:37.739Z,100571.59
2023-01-03T02:16:16.278Z,100575.94
2023-01-03T02:18:57.763Z,100589.81
2023-01-03T02:21:56.945Z,100579.34
2023-01-03T02:24:40.038Z,100591.53
2023-01-03T02:27:21.655Z,100594.16
2023-01-03T02:30:02.788Z,100594.16
2023-01-03T02:32:38.346Z,100598.47
2023-01-03T02:35:18.464Z,100603.69
2023-01-03T02:38:13.732Z,100592.41
2023-01-03T02:40:48.860Z,100595.88
2023-01-03T02:43:41.869Z,100601.94
2023-01-03T02:46:40.882Z,100603.66
2023-01-03T02:49:23.801Z,100604.53
2023-01-03T02:51:55.061Z,100613.22
2023-01-03T02:54:35.362Z,100608.88
2023-01-03T02:57:10.759Z,100614.06
2023-01-03T03:00:00.745Z,100616.69
2023-01-03T03:02:35.323Z,100621.03
2023-01-03T03:05:08.828Z,100618.44
2023-01-03T03:07:39.283Z,100620.16
2023-01-03T03:10:26.512Z,100629.72
2023-01-03T03:13:13.266Z,100623.59
2023-01-03T03:15:53.507Z,100630.56
2023-01-03T03:18:28.173Z,100630.53
2023-01-03T03:21:17.267Z,100641.84
2023-01-03T03:24:05.595Z,100631.41
2023-01-03T03:26:40.690Z,100641.84
2023-01-03T03:29:16.115Z,100648.78
2023-01-03T03:31:49.988Z,100653.16
2023-01-03T03:34:25.416Z,100661.84
2023-01-03T03:37:04.227Z,100663.59
2023-01-03T03:39:51.285Z,100679.22
2023-01-03T03:42:55.158Z,100679.19
2023-01-03T03:45:31.269Z,100683.50
2023-01-03T03:48:16.721Z,100679.16
2023-01-03T03:50:54.915Z,100677.44
2023-01-03T03:53:25.515Z,100680.91
2023-01-03T03:56:05.399Z,100697.44
2023-01-03T03:58:38.929Z,100698.31
2023-01-03T04:01:06.747Z,100701.81
2023-01-03T04:03:35.046Z,100706.16
2023-01-03T04:06:09.811Z,100709.63
2023-01-03T04:08:36.898Z,100707.91
2023-01-03T04:11:06.375Z,100724.41
2023-01-03T04:13:34.342Z,100727.00
2023-01-03T04:16:01.187Z,100733.97
2023-01-03T04:18:28.001Z,100734.81
2023-01-03T04:20:54.728Z,100736.56
2023-01-03T04:23:21.979Z,100740.00
2023-01-03T04:25:49.272Z,100747.00
2023-01-03T04:28:17.170Z,100743.50
2023-01-03T04:30:44.526Z,100755.69
2023-01-03T04:33:11.369Z,100754.84
2023-01-03T04:35:38.341Z,100758.31
2023-01-03T04:38:05.788Z,100755.72
2023-01-03T04:40:34.986Z,100762.66
2023-01-03T04:43:20.065Z,100762.66
2023-01-03T04:45:49.086Z,100773.97
2023-01-03T04:48:16.339Z,100774.88
2023-01-03T04:50:51.317Z,100785.31
2023-01-03T04:53:18.044Z,100781.84
2023-01-03T04:55:49.193Z,100785.34
2023-01-03T04:58:15.991Z,100789.66
2023-01-03T05:00:42.788Z,100796.63
2023-01-03T05:03:09.734Z,100799.25
2023-01-03T05:05:37.865Z,100802.78
2023-01-03T05:08:06.027Z,100814.06
2023-01-03T05:10:33.037Z,100812.34
2023-01-03T05:13:00.814Z,100823.59
2023-01-03T05:15:32.666Z,100826.22
2023-01-03T05:17:59.372Z,100834.00
2023-01-03T05:20:45.109Z,100831.38
2023-01-03T05:23:35.194Z,100837.47
2023-01-03T05:26:06.855Z,100847.00
2023-01-03T05:28:34.059Z,100847.84
2023-01-03T05:31:00.912Z,100856.50
2023-01-03T05:33:27.992Z,100854.81
2023-01-03T05:35:54.664Z,100858.25
2023-01-03T05:38:21.624Z,100862.63
2023-01-03T05:40:48.283Z,100863.50
2023-01-03T05:43:14.973Z,100866.97
2023-01-03T05:45:41.829Z,100867.84
2023-01-03T05:48:09.435Z,100875.69
2023-01-03T05:50:36.151Z,100874.00
2023-01-03T05:53:03.993Z,100876.56
2023-01-03T05:55:30.684Z,100883.53
2023-01-03T05:57:57.378Z,100893.09
2023-01-03T06:00:24.100Z,100894.84
2023-01-03T06:02:51.498Z,100901.78
2023-01-03T06:05:18.498Z,100898.28
2023-01-03T06:07:45.376Z,100896.56
2023-01-03T06:10:12.257Z,100910.44
2023-01-03T06:12:39.176Z,100916.47
2023-01-03T06:15:07.015Z,100893.75
2023-01-03T06:17:52.914Z,100912.06
2023-01-03T06:20:19.732Z,100939.91
2023-01-03T06:22:46.599Z,100931.22
2023-01-03T06:25:13.491Z,100940.72
2023-01-03T06:27:40.252Z,100945.94
2023-01-03T06:30:07.752Z,100949.47
2023-01-03T06:32:37.330Z,100945.94
2023-01-03T06:35:05.183Z,100955.53
2023-01-03T06:37:31.922Z,100963.38
2023-01-03T06:39:58.739Z,100968.53
2023-01-03T06:42:42.503Z,100978.09
2023-01-03T06:45:30.172Z,100982.44
2023-01-03T06:48:15.575Z,100993.69
2023-01-03T06:51:02.346Z,100994.53
2023-01-03T06:53:41.239Z,100998.91
2023-01-03T06:56:08.820Z,101009.34
2023-01-03T06:58:36.545Z,101005.81
2023-01-03T07:01:04.951Z,101011.91
2023-01-03T07:03:32.927Z,101023.19
2023-01-03T07:05:59.932Z,101015.38
2023-01-03T07:08:26.759Z,101027.59
2023-01-03T07:10:54.959Z,101032.81
2023-01-03T07:13:40.171Z,101031.03
2023-01-03T07:16:07.224Z,101035.34
2023-01-03T07:18:34.194Z,101040.53
2023-01-03T07:21:01.059Z,101044.06
2023-01-03T07:23:30.113Z,101046.66
2023-01-03T07:25:57.073Z,101050.13
2023-01-03T07:28:23.998Z,101055.34
2023-01-03T07:30:51.923Z,101058.78
2023-01-03T07:33:24.542Z,101064.88
2023-01-03T07:35:51.294Z,101069.25
2023-01-03T07:38:21.207Z,101070.13
2023-01-03T07:40:48.288Z,101083.16
2023-01-03T07:43:38.493Z,101085.75
2023-01-03T07:46:20.966Z,101078.75
2023-01-03T07:48:59.860Z,101094.50
2023-01-03T07:51:26.554Z,101106.72
2023-01-03T07:53:53.640Z,101105.84
2023-01-03T07:56:22.885Z,101111.91
2023-01-03T07:58:52.036Z,101124.91
2023-01-03T08:01:22.290Z,101124.00
2023-01-03T08:03:49.529Z,101115.25
2023-01-03T08:06:22.324Z,101127.38
2023-01-03T08:09:08.423Z,101133.41
2023-01-03T08:11:53.564Z,101132.53
2023-01-03T08:14:25.349Z,101133.47
2023-01-03T08:16:53.582Z,101146.63
2023-01-03T08:19:20.284Z,101149.19
2023-01-03T08:21:47.114Z,101150.00
2023-01-03T08:24:13.874Z,101156.84
2023-01-03T08:26:40.850Z,101160.22
2023-01-03T08:29:08.197Z,101163.59
2023-01-03T08:31:40.102Z,101160.03
2023-01-03T08:34:17.010Z,101181.50
2023-01-03T08:36:55.417Z,101183.00
2023-01-03T08:39:30.207Z,101188.09
2023-01-03T08:42:03.635Z,101189.66
2023-01-03T08:44:32.453Z,101199.00
2023-01-03T08:47:03.101Z,101203.22
2023-01-03T08:49:32.829Z,101207.63
2023-01-03T08:51:59.521Z,101205.81
2023-01-03T08:54:26.323Z,101214.44
2023-01-03T08:56:53.119Z,101216.09
2023-01-03T08:59:20.004Z,101218.56
2023-01-03T09:01:46.925Z,101226.25
2023-01-03T09:04:13.857Z,101225.28
2023-01-03T09:06:40.845Z,101242.72
2023-01-03T09:09:08.983Z,101233.25
2023-01-03T09:11:35.696Z,101239.47
2023-01-03T09:14:02.474Z,101245.53
2023-01-03T09:16:29.200Z,101242.78
2023-01-03T09:18:56.063Z,101241.63
2023-01-03T09:21:22.865Z,101247.47
2023-01-03T09:23:49.584Z,101253.44
2023-01-03T09:26:16.289Z,101251.63
2023-01-03T09:28:43.010Z,101256.69
2023-01-03T09:31:09.827Z,101260.03
2023-01-03T09:33:36.597Z,101270.31
2023-01-03T09:36:10.621Z,101270.94
2023-01-03T09:38:37.346Z,101282.03
2023-01-03T09:41:12.736Z,101276.75
2023-01-03T09:43:45.806Z,101286.16
2023-01-03T09:46:18.540Z,101285.94
2023-01-03T09:48:49.508Z,101291.84
2023-01-03T09:51:42.884Z,101295.22
2023-01-03T09:54:35.368Z,101298.59
2023-01-03T09:57:28.185Z,101305.44
2023-01-03T10:00:14.311Z,101304.41
2023-01-03T10:03:36.345Z,101310.34
2023-01-03T10:06:15.686Z,101321.66
2023-01-03T10:08:47.858Z,101317.38
2023-01-03T10:11:53.741Z,101320.78
2023-01-03T10:14:35.370Z,101327.69
2023-01-03T10:17:27.973Z,101330.22
2023-01-03T10:20:13.833Z,101337.97
2023-01-03T10:22:41.107Z,101326.59
2023-01-03T10:25:13.061Z,101337.84
2023-01-03T10:27:48.172Z,101337.81
2023-01-03T10:30:27.085Z,101342.13
2023-01-03T10:32:53.779Z,101349.81
2023-01-03T10:35:25.283Z,101351.50
2023-01-03T10:37:53.886Z,101351.47
2023-01-03T10:40:20.899Z,101353.16
2023-01-03T10:42:50.460Z,101354.84
2023-01-03T10:45:20.537Z,101350.41
2023-01-03T10:48:01.398Z,101362.53
2023-01-03T10:50:29.790Z,101363.25
2023-01-03T10:53:05.816Z,101371.91
2023-01-03T10:55:35.127Z,101381.41
2023-01-03T10:58:04.537Z,101376.13
2023-01-03T11:00:38.433Z,101379.66
2023-01-03T11:03:17.621Z,101388.25
2023-01-03T11:05:47.518Z,101394.28
2023-01-03T11:08:23.628Z,101389.09
2023-01-03T11:10:50.287Z,101391.88
2023-01-03T11:13:39.404Z,101384.97
2023-01-03T11:16:19.004Z,101384.97
2023-01-03T11:19:00.757Z,101397.97
2023-01-03T11:22:02.684Z,101394.47
2023-01-03T11:24:54.339Z,101400.47
2023-01-03T11:27:44.774Z,101404.84
2023-01-03T11:30:26.033Z,101420.44
2023-01-03T11:33:00.289Z,101423.84
2023-01-03T11:35:34.652Z,101424.75
2023-01-03T11:38:46.778Z,101432.53
2023-01-03T11:41:32.059Z,101436.81
2023-01-03T11:44:29.642Z,101430.75
2023-01-03T11:47:16.491Z,101432.53
2023-01-03T11:49:43.096Z,101436.88
2023-01-03T11:52:28.081Z,101443.81
2023-01-03T11:55:16.161Z,101451.63
2023-01-03T11:58:02.474Z,101459.50
2023-01-03T12:00:46.848Z,101460.34
2023-01-03T12:03:48.017Z,101472.53
2023-01-03T12:06:29.170Z,101478.56
2023-01-03T12:09:25.609Z,101473.41
2023-01-03T12:11:55.162Z,101474.41
2023-01-03T12:14:35.457Z,101489.19
2023-01-03T12:17:07.776Z,101481.34
2023-01-03T12:19:43.593Z,101483.00
2023-01-03T12:22:26.237Z,101482.22
2023-01-03T12:25:16.035Z,101478.72
2023-01-03T12:28:07.167Z,101487.38
2023-01-03T12:30:42.609Z,101493.44
2023-01-03T12:33:25.041Z,101496.81
2023-01-03T12:36:00.420Z,101508.97
2023-01-03T12:38:35.588Z,101511.53
2023-01-03T12:41:13.885Z,101512.41
2023-01-03T12:43:56.004Z,101520.97
2023-01-03T12:46:28.866Z,101520.94
2023-01-03T12:49:16.863Z,101527.00
2023-01-03T12:51:43.830Z,101527.00
2023-01-03T12:54:35.340Z,101522.75
2023-01-03T12:57:08.228Z,101522.78
2023-01-03T13:00:00.131Z,101520.25
2023-01-03T13:02:44.360Z,101528.09
2023-01-03T13:05:45.413Z,101535.84
2023-01-03T13:08:33.411Z,101525.50
2023-01-03T13:11:06.991Z,101533.25
2023-01-03T13:13:35.202Z,101533.25
2023-01-03T13:16:48.927Z,101533.28
2023-01-03T13:19:21.838Z,101535.88
2023-01-03T13:21:54.456Z,101538.47
2023-01-03T13:24:44.598Z,101552.41
2023-01-03T13:27:17.341Z,101556.75
2023-01-03T13:29:49.706Z,101551.56
2023-01-03T13:32:22.362Z,101547.22
2023-01-03T13:34:58.293Z,101554.16
2023-01-03T13:37:29.293Z,101551.53
2023-01-03T13:40:02.616Z,101543.66
2023-01-03T13:42:36.904Z,101565.31
2023-01-03T13:45:15.560Z,101567.03
2023-01-03T13:47:50.388Z,101580.88
2023-01-03T13:50:22.184Z,101588.59
2023-01-03T13:53:05.924Z,101590.31
2023-01-03T13:56:11.433Z,101593.69
2023-01-03T13:58:43.434Z,101590.19
2023-01-03T14:01:45.592Z,101585.88
2023-01-03T14:04:31.013Z,101590.19
2023-01-03T14:07:45.717Z,101584.03
2023-01-03T14:10:46.667Z,101584.81
2023-01-03T14:13:22.215Z,101596.13
2023-01-03T14:15:49.770Z,101598.66
2023-01-03T14:18:27.755Z,101594.31
2023-01-03T14:20:57.869Z,101605.53
2023-01-03T14:26:16.883Z,101621.88
2023-01-03T14:28:49.337Z,101615.81
2023-01-03T14:31:21.257Z,101615.81
2023-01-03T14:33:54.683Z,101622.75
2023-01-03T14:36:22.238Z,101630.50
2023-01-03T14:38:54.697Z,101636.59
2023-01-03T14:41:32.410Z,101631.38
2023-01-03T14:44:21.236Z,101626.22
2023-01-03T14:46:55.116Z,101629.78
2023-01-03T14:49:47.446Z,101641.16
2023-01-03T14:52:19.426Z,101643.00
2023-01-03T14:54:49.663Z,101638.69
2023-01-03T14:57:19.319Z,101639.66
2023-01-03T14:59:47.217Z,101636.28
2023-01-03T15:02:14.346Z,101648.50
2023-01-03T15:04:49.494Z,101645.06
2023-01-03T15:07:43.330Z,101653.72
2023-01-03T15:10:12.761Z,101655.47
2023-01-03T15:12:42.948Z,101666.78
2023-01-03T15:15:09.753Z,101661.66
2023-01-03T15:17:37.855Z,101668.72
2023-01-03T15:20:08.472Z,101669.66
2023-01-03T15:22:40.779Z,101673.19
2023-01-03T15:25:20.308Z,101668.91
2023-01-03T15:27:49.621Z,101674.09
2023-01-03T15:30:20.754Z,101676.75
2023-01-03T15:33:20.076Z,101680.31
2023-01-03T15:35:50.084Z,101684.66
2023-01-03T15:38:29.696Z,101681.19
2023-01-03T15:40:56.620Z,101689.78
2023-01-03T15:43:33.309Z,101686.28
2023-01-03T15:46:04.222Z,101687.19
2023-01-03T15:48:35.501Z,101688.09
2023-01-03T15:51:04.300Z,101688.97
2023-01-03T15:53:43.172Z,101695.88
2023-01-03T15:56:22.352Z,101693.28
2023-01-03T15:58:52.030Z,101695.78
2023-01-03T16:01:20.200Z,101702.66
2023-01-03T16:03:48.477Z,101715.66
2023-01-03T16:06:16.554Z,101713.06
2023-01-03T16:08:44.001Z,101718.34
2023-01-03T16:11:33.474Z,101725.34
2023-01-03T16:14:04.848Z,101727.13
2023-01-03T16:16:35.314Z,101727.22
2023-01-03T16:19:04.248Z,101735.13
2023-01-03T16:21:31.491Z,101732.53
2023-01-03T16:23:58.542Z,101733.53
2023-01-03T16:26:25.949Z,101740.50
2023-01-03T16:28:52.753Z,101737.06
2023-01-03T16:31:29.645Z,101739.69
2023-01-03T16:33:56.606Z,101741.41
2023-01-03T16:36:30.944Z,101738.91
2023-01-03T16:38:58.355Z,101740.66
2023-01-03T16:41:25.284Z,101742.47
2023-01-03T16:43:52.804Z,101749.41
2023-01-03T16:46:22.509Z,101749.50
2023-01-03T16:48:53.021Z,101752.03
2023-01-03T16:51:24.673Z,101751.16
2023-01-03T16:53:52.468Z,101743.34
2023-01-03T16:56:19.197Z,101752.00
2023-01-03T16:58:45.969Z,101758.97
2023-01-03T17:01:13.892Z,101756.38
2023-01-03T17:03:42.278Z,101758.97
2023-01-03T17:06:35.071Z,101773.75
2023-01-03T17:09:28.098Z,101760.69
2023-01-03T17:11:54.830Z,101757.13
2023-01-03T17:14:22.795Z,101760.59
2023-01-03T17:16:50.876Z,101751.81
2023-01-03T17:20:02.656Z,101762.06
2023-01-03T17:22:14.865Z,101770.59
2023-01-03T17:24:41.949Z,101766.19
2023-01-03T17:27:32.009Z,101774.84
2023-01-03T17:30:03.324Z,101779.22
2023-01-03T17:32:30.811Z,101786.13
2023-01-03T17:34:57.821Z,101793.03
2023-01-03T17:37:25.468Z,101785.13
2023-01-03T17:39:57.353Z,101790.31
2023-01-03T17:42:26.640Z,101784.06
2023-01-03T17:45:12.456Z,101795.31
2023-01-03T17:48:00.309Z,101793.53
2023-01-03T17:50:29.688Z,101796.03
2023-01-03T17:52:56.840Z,101791.53
2023-01-03T17:55:26.484Z,101794.09
2023-01-03T17:57:54.680Z,101798.41
2023-01-03T18:00:24.852Z,101802.66
2023-01-03T18:02:52.541Z,101807.72
2023-01-03T18:05:27.070Z,101809.34
2023-01-03T18:07:57.507Z,101806.63
2023-01-03T18:10:41.750Z,101807.44
2023-01-03T18:13:26.381Z,101808.13
2023-01-03T18:15:54.452Z,101819.31
2023-01-03T18:18:23.862Z,101815.66
2023-01-03T18:20:51.312Z,101826.03
2023-01-03T18:23:30.430Z,101828.59
2023-01-03T18:25:59.985Z,101825.06
2023-01-03T18:28:27.951Z,101835.41
2023-01-03T18:30:55.875Z,101835.44
2023-01-03T18:33:23.323Z,101839.81
2023-01-03T18:35:50.636Z,101852.75
2023-01-03T18:38:24.097Z,101849.16
2023-01-03T18:40:51.156Z,101850.72
2023-01-03T18:43:19.488Z,101851.34
2023-01-03T18:45:46.315Z,101854.72
2023-01-03T18:48:18.485Z,101859.66
2023-01-03T18:50:53.830Z,101850.84
2023-01-03T18:53:28.772Z,101854.03
2023-01-03T18:55:55.622Z,101856.53
2023-01-03T18:58:35.587Z,101850.25
2023-01-03T19:01:03.056Z,101854.44
2023-01-03T19:03:32.629Z,101852.63
2023-01-03T19:06:03.258Z,101858.59
2023-01-03T19:08:33.164Z,101859.34
2023-01-03T19:11:06.257Z,101859.22
2023-01-03T19:13:54.872Z,101848.69
2023-01-03T19:16:28.150Z,101852.16
2023-01-03T19:18:55.067Z,101851.19
2023-01-03T19:21:23.396Z,101855.50
2023-01-03T19:24:19.524Z,101863.28
2023-01-03T19:27:01.087Z,101855.38
2023-01-03T19:29:36.773Z,101857.97
2023-01-03T19:32:19.145Z,101860.53
2023-01-03T19:34:46.027Z,101863.00
2023-01-03T19:37:12.856Z,101865.53
2023-01-03T19:39:39.883Z,101871.53
2023-01-03T19:42:30.417Z,101873.25
2023-01-03T19:44:59.271Z,101877.56
2023-01-03T19:47:25.996Z,101875.72
2023-01-03T19:49:52.719Z,101873.94
2023-01-03T19:52:19.381Z,101875.59
2023-01-03T19:54:46.048Z,101876.38
2023-01-03T19:57:30.186Z,101873.69
2023-01-03T19:59:59.498Z,101878.75
2023-01-03T20:02:32.206Z,101881.34
2023-01-03T20:04:59.579Z,101885.63
2023-01-03T20:07:26.431Z,101888.06
2023-01-03T20:09:53.106Z,101886.38
2023-01-03T20:12:25.297Z,101881.22
2023-01-03T20:14:54.919Z,101882.09
2023-01-03T20:17:24.558Z,101886.41
2023-01-03T20:19:51.993Z,101895.97
2023-01-03T20:22:53.461Z,101892.44
2023-01-03T20:25:27.113Z,101886.53
2023-01-03T20:27:55.156Z,101888.50
2023-01-03T20:30:25.699Z,101886.84
2023-01-03T20:32:52.941Z,101880.78
2023-01-03T20:36:08.762Z,101882.56
2023-01-03T20:38:11.563Z,101875.53
2023-01-03T20:40:39.270Z,101877.25
2023-01-03T20:43:06.039Z,101881.47
2023-01-03T20:45:33.410Z,101881.34
2023-01-03T20:48:00.394Z,101884.81
2023-01-03T20:50:29.368Z,101890.94
2023-01-03T20:52:58.140Z,101896.09
2023-01-03T20:55:26.951Z,101900.34
2023-01-03T20:57:53.996Z,101900.25
2023-01-03T21:00:30.189Z,101900.25
2023-01-03T21:02:57.038Z,101898.56
2023-01-03T21:05:23.979Z,101894.19
2023-01-03T21:08:09.953Z,101897.66
2023-01-03T21:10:39.101Z,101900.25
2023-01-03T21:13:06.377Z,101900.22
2023-01-03T21:15:33.517Z,101900.22
2023-01-03T21:18:00.257Z,101898.50
2023-01-03T21:20:28.879Z,101904.69
2023-01-03T21:22:55.734Z,101897.91
2023-01-03T21:25:25.398Z,101900.59
2023-01-03T21:27:52.185Z,101894.56
2023-01-03T21:30:20.513Z,101903.19
2023-01-03T21:32:48.019Z,101902.41
2023-01-03T21:35:20.564Z,101905.06
2023-01-03T21:37:47.936Z,101899.94
2023-01-03T21:40:26.261Z,101906.00
2023-01-03T21:43:04.309Z,101906.81
2023-01-03T21:45:44.981Z,101906.00
2023-01-03T21:48:14.174Z,101908.53
2023-01-03T21:50:47.004Z,101913.56
2023-01-03T21:53:16.192Z,101911.53
2023-01-03T21:55:43.336Z,101916.34
2023-01-03T21:58:18.463Z,101921.22
2023-01-03T22:00:47.932Z,101924.41
2023-01-03T22:03:34.956Z,101915.69
2023-01-03T22:06:13.774Z,101922.66
2023-01-03T22:08:41.007Z,101917.47
2023-01-03T22:11:08.312Z,101923.47
2023-01-03T22:13:35.942Z,101932.16
2023-01-03T22:16:05.169Z,101928.72
2023-01-03T22:18:32.144Z,101925.38
2023-01-03T22:21:07.311Z,101917.75
2023-01-03T22:23:34.655Z,101914.38
2023-01-03T22:26:13.562Z,101915.25
2023-01-03T22:28:49.562Z,101920.44
2023-01-03T22:31:18.851Z,101919.50
2023-01-03T22:33:47.734Z,101919.50
2023-01-03T22:36:15.805Z,101935.06
2023-01-03T22:38:43.031Z,101940.09
2023-01-03T22:41:15.992Z,101941.59
2023-01-03T22:43:43.784Z,101940.59
2023-01-03T22:46:18.055Z,101943.81
2023-01-03T22:48:45.205Z,101941.97
2023-01-03T22:51:13.949Z,101940.28
2023-01-03T22:53:45.940Z,101940.22
2023-01-03T22:56:17.697Z,101942.72
2023-01-03T22:58:51.409Z,101942.72
2023-01-03T23:01:22.760Z,101947.09
2023-01-03T23:03:49.751Z,101945.03
2023-01-03T23:06:25.444Z,101934.69
2023-01-03T23:08:52.116Z,101937.34
2023-01-03T23:11:40.726Z,101940.97
2023-01-03T23:14:16.676Z,101939.34
2023-01-03T23:16:43.622Z,101937.69
2023-01-03T23:19:19.964Z,101936.84
2023-01-03T23:21:50.322Z,101937.81
2023-01-03T23:24:23.996Z,101940.41
2023-01-03T23:26:51.935Z,101943.88
2023-01-03T23:29:18.841Z,101930.03
2023-01-03T23:31:45.701Z,101932.69
2023-01-03T23:34:12.803Z,101935.34
2023-01-03T23:36:39.890Z,101931.00
2023-01-03T23:39:06.585Z,101932.44
2023-01-03T23:41:34.591Z,101937.28
2023-01-03T23:44:01.315Z,101932.78
2023-01-03T23:46:28.044Z,101939.53
2023-01-03T23:48:57.015Z,101939.50
2023-01-03T23:51:24.655Z,101943.69
2023-01-03T23:53:51.693Z,101940.19
2023-01-03T23:56:21.365Z,101946.09
2023-01-03T23:58:48.311Z,101947.59
